Aviation Digital Data Service (ADDS)

Output produced by METARs form (1659 UTC 24 August 2019)
found at http://www.aviationweather.gov/metar/data/
 
METAR text: KJAN 241654Z 00000KT 10SM FEW031 SCT038 BKN120 31/22 A3002 RMK AO2 SLP161 T03110217
Conditions at: KJAN (JACKSON , MS, US) observed 1654 UTC 24 August 2019
Temperature: 31.1°C (88°F)
Dewpoint: 21.7°C (71°F) [RH = 57%]
Pressure (altimeter): 30.02 inches Hg (1016.7 mb)
[Sea-level pressure: 1016.1 mb]
Winds: calm
Visibility: 10 or more miles (16+ km)
Ceiling: 12000 feet AGL
Clouds: few clouds at 3100 feet AGL
scattered clouds at 3800 feet AGL
broken clouds at 12000 feet AGL
Weather: no significant weather observed at this time

METAR text: KJAN 241554Z 00000KT 10SM FEW021 SCT120 31/23 A3003 RMK AO2 SLP164 T03060228
Conditions at: KJAN (JACKSON , MS, US) observed 1554 UTC 24 August 2019
Temperature: 30.6°C (87°F)
Dewpoint: 22.8°C (73°F) [RH = 63%]
Pressure (altimeter): 30.03 inches Hg (1017.0 mb)
[Sea-level pressure: 1016.4 mb]
Winds: calm
Visibility: 10 or more miles (16+ km)
Ceiling: at least 12,000 feet AGL
Clouds: few clouds at 2100 feet AGL
scattered clouds at 12000 feet AGL
Weather: no significant weather observed at this time

METAR text: KJAN 241454Z 00000KT 10SM FEW020 BKN110 28/23 A3003 RMK AO2 SLP163 60000 T02780228 55002
Conditions at: KJAN (JACKSON , MS, US) observed 1454 UTC 24 August 2019
Temperature: 27.8°C (82°F)
Dewpoint: 22.8°C (73°F) [RH = 74%]
Pressure (altimeter): 30.03 inches Hg (1017.0 mb)
[Sea-level pressure: 1016.3 mb]
Winds: calm
Visibility: 10 or more miles (16+ km)
Ceiling: 11000 feet AGL
Clouds: few clouds at 2000 feet AGL
broken clouds at 11000 feet AGL
Weather: no significant weather observed at this time

METAR text: KJAN 241354Z 00000KT 10SM BKN110 26/23 A3002 RMK AO2 SLP161 T02610233
Conditions at: KJAN (JACKSON , MS, US) observed 1354 UTC 24 August 2019
Temperature: 26.1°C (79°F)
Dewpoint: 23.3°C (74°F) [RH = 85%]
Pressure (altimeter): 30.02 inches Hg (1016.7 mb)
[Sea-level pressure: 1016.1 mb]
Winds: calm
Visibility: 10 or more miles (16+ km)
Ceiling: 11000 feet AGL
Clouds: broken clouds at 11000 feet AGL
Weather: no significant weather observed at this time

METAR text: KJAN 241254Z 00000KT 10SM BKN110 25/23 A3003 RMK AO2 RAB34E46 SLP163 P0000 T02500233
Conditions at: KJAN (JACKSON , MS, US) observed 1254 UTC 24 August 2019
Temperature: 25.0°C (77°F)
Dewpoint: 23.3°C (74°F) [RH = 90%]
Pressure (altimeter): 30.03 inches Hg (1017.0 mb)
[Sea-level pressure: 1016.3 mb]
Winds: calm
Visibility: 10 or more miles (16+ km)
Ceiling: 11000 feet AGL
Clouds: broken clouds at 11000 feet AGL
Weather: no significant weather observed at this time

METAR text: KJAN 241154Z 00000KT 10SM OVC100 24/23 A3003 RMK AO2 RAE49 SLP165 P0001 60001 70001 T02390228 10244 20228 51012
Conditions at: KJAN (JACKSON , MS, US) observed 1154 UTC 24 August 2019
Temperature: 23.9°C (75°F)
Dewpoint: 22.8°C (73°F) [RH = 94%]
Pressure (altimeter): 30.03 inches Hg (1017.0 mb)
[Sea-level pressure: 1016.5 mb]
Winds: calm
Visibility: 10 or more miles (16+ km)
Ceiling: 10000 feet AGL
Clouds: overcast cloud deck at 10000 feet AGL
Weather: no significant weather observed at this time

METAR text: KJAN 241054Z 00000KT 10SM -RA BKN110 24/22 A3002 RMK AO2 RAB52 SLP161 P0000 T02390222
Conditions at: KJAN (JACKSON , MS, US) observed 1054 UTC 24 August 2019
Temperature: 23.9°C (75°F)
Dewpoint: 22.2°C (72°F) [RH = 90%]
Pressure (altimeter): 30.02 inches Hg (1016.7 mb)
[Sea-level pressure: 1016.1 mb]
Winds: calm
Visibility: 10 or more miles (16+ km)
Ceiling: 11000 feet AGL
Clouds: broken clouds at 11000 feet AGL
Weather: -RA  (light rain)

METAR text: KJAN 240954Z AUTO 00000KT 10SM CLR 24/22 A3001 RMK AO2 SLP157 T02390222
Conditions at: KJAN (JACKSON , MS, US) observed 0954 UTC 24 August 2019
Temperature: 23.9°C (75°F)
Dewpoint: 22.2°C (72°F) [RH = 90%]
Pressure (altimeter): 30.01 inches Hg (1016.3 mb)
[Sea-level pressure: 1015.7 mb]
Winds: calm
Visibility: 10 or more miles (16+ km)
Ceiling: at least 12,000 feet AGL
Clouds: sky clear below 12,000 feet AGL
Weather: automated observation with no human augmentation;
there may or may not be significant weather present at this time

METAR text: KJAN 240854Z AUTO 00000KT 10SM R16L/4500VP6000FT FEW110 23/22 A3000 RMK AO2 SLP153 T02330222 53003
Conditions at: KJAN (JACKSON , MS, US) observed 0854 UTC 24 August 2019
Temperature: 23.3°C (74°F)
Dewpoint: 22.2°C (72°F) [RH = 94%]
Pressure (altimeter): 30.00 inches Hg (1016.0 mb)
[Sea-level pressure: 1015.3 mb]
Winds: calm
Visibility: 10 or more miles (16+ km)
Ceiling: at least 12,000 feet AGL
Clouds: few clouds at 11000 feet AGL
Weather: automated observation with no human augmentation;
there may or may not be significant weather present at this time

METAR text: KJAN 240754Z AUTO 00000KT 10SM CLR 24/22 A2999 RMK AO2 SLP150 T02390222
Conditions at: KJAN (JACKSON , MS, US) observed 0754 UTC 24 August 2019
Temperature: 23.9°C (75°F)
Dewpoint: 22.2°C (72°F) [RH = 90%]
Pressure (altimeter): 29.99 inches Hg (1015.7 mb)
[Sea-level pressure: 1015.0 mb]
Winds: calm
Visibility: 10 or more miles (16+ km)
Ceiling: at least 12,000 feet AGL
Clouds: sky clear below 12,000 feet AGL
Weather: automated observation with no human augmentation;
there may or may not be significant weather present at this time

METAR text: KJAN 240654Z AUTO 11003KT 10SM CLR 23/22 A2999 RMK AO2 SLP151 T02330222
Conditions at: KJAN (JACKSON , MS, US) observed 0654 UTC 24 August 2019
Temperature: 23.3°C (74°F)
Dewpoint: 22.2°C (72°F) [RH = 94%]
Pressure (altimeter): 29.99 inches Hg (1015.7 mb)
[Sea-level pressure: 1015.1 mb]
Winds: from the ESE (110 degrees) at 3 MPH (3 knots; 1.5 m/s)
Visibility: 10 or more miles (16+ km)
Ceiling: at least 12,000 feet AGL
Clouds: sky clear below 12,000 feet AGL
Weather: automated observation with no human augmentation;
there may or may not be significant weather present at this time

METAR text: KJAN 240554Z AUTO 18003KT 10SM CLR 24/22 A2999 RMK AO2 SLP150 60000 T02390222 10256 20239 403390228 50004
Conditions at: KJAN (JACKSON , MS, US) observed 0554 UTC 24 August 2019
Temperature: 23.9°C (75°F)
Dewpoint: 22.2°C (72°F) [RH = 90%]
Pressure (altimeter): 29.99 inches Hg (1015.7 mb)
[Sea-level pressure: 1015.0 mb]
Winds: from the S (180 degrees) at 3 MPH (3 knots; 1.5 m/s)
Visibility: 10 or more miles (16+ km)
Ceiling: at least 12,000 feet AGL
Clouds: sky clear below 12,000 feet AGL
Weather: automated observation with no human augmentation;
there may or may not be significant weather present at this time

METAR text: KJAN 240454Z AUTO 13003KT 10SM CLR 24/23 A2999 RMK AO2 SLP152 T02440228
Conditions at: KJAN (JACKSON , MS, US) observed 0454 UTC 24 August 2019
Temperature: 24.4°C (76°F)
Dewpoint: 22.8°C (73°F) [RH = 91%]
Pressure (altimeter): 29.99 inches Hg (1015.7 mb)
[Sea-level pressure: 1015.2 mb]
Winds: from the SE (130 degrees) at 3 MPH (3 knots; 1.5 m/s)
Visibility: 10 or more miles (16+ km)
Ceiling: at least 12,000 feet AGL
Clouds: sky clear below 12,000 feet AGL
Weather: automated observation with no human augmentation;
there may or may not be significant weather present at this time

METAR text: KJAN 240354Z 08004KT 10SM CLR 25/23 A3000 RMK AO2 SLP153 T02500228
Conditions at: KJAN (JACKSON , MS, US) observed 0354 UTC 24 August 2019
Temperature: 25.0°C (77°F)
Dewpoint: 22.8°C (73°F) [RH = 88%]
Pressure (altimeter): 30.00 inches Hg (1016.0 mb)
[Sea-level pressure: 1015.3 mb]
Winds: from the E (80 degrees) at 5 MPH (4 knots; 2.1 m/s)
Visibility: 10 or more miles (16+ km)
Ceiling: at least 12,000 feet AGL
Clouds: sky clear below 12,000 feet AGL
Weather: no significant weather observed at this time

METAR text: KJAN 240254Z 18003KT 10SM CLR 25/23 A2998 RMK AO2 SLP146 60000 T02500233 53002
Conditions at: KJAN (JACKSON , MS, US) observed 0254 UTC 24 August 2019
Temperature: 25.0°C (77°F)
Dewpoint: 23.3°C (74°F) [RH = 90%]
Pressure (altimeter): 29.98 inches Hg (1015.3 mb)
[Sea-level pressure: 1014.6 mb]
Winds: from the S (180 degrees) at 3 MPH (3 knots; 1.5 m/s)
Visibility: 10 or more miles (16+ km)
Ceiling: at least 12,000 feet AGL
Clouds: sky clear below 12,000 feet AGL
Weather: no significant weather observed at this time

METAR text: KJAN 240154Z 18004KT 10SM CLR 25/23 A2998 RMK AO2 SLP145 T02500233
Conditions at: KJAN (JACKSON , MS, US) observed 0154 UTC 24 August 2019
Temperature: 25.0°C (77°F)
Dewpoint: 23.3°C (74°F) [RH = 90%]
Pressure (altimeter): 29.98 inches Hg (1015.3 mb)
[Sea-level pressure: 1014.5 mb]
Winds: from the S (180 degrees) at 5 MPH (4 knots; 2.1 m/s)
Visibility: 10 or more miles (16+ km)
Ceiling: at least 12,000 feet AGL
Clouds: sky clear below 12,000 feet AGL
Weather: no significant weather observed at this time

METAR text: KJAN 240054Z 17005KT 10SM CLR 26/23 A2996 RMK AO2 RAB2356E21 SLP140 P0000 T02560228
Conditions at: KJAN (JACKSON , MS, US) observed 0054 UTC 24 August 2019
Temperature: 25.6°C (78°F)
Dewpoint: 22.8°C (73°F) [RH = 85%]
Pressure (altimeter): 29.96 inches Hg (1014.6 mb)
[Sea-level pressure: 1014.0 mb]
Winds: from the S (170 degrees) at 6 MPH (5 knots; 2.6 m/s)
Visibility: 10 or more miles (16+ km)
Ceiling: at least 12,000 feet AGL
Clouds: sky clear below 12,000 feet AGL
Weather: no significant weather observed at this time

METAR text: KJAN 232354Z 21003KT 10SM FEW050 SCT070 BKN095 26/23 A2997 RMK AO2 RAB2259E47 SLP144 P0000 60000 T02560228 10339 20256 50006
Conditions at: KJAN (JACKSON , MS, US) observed 2354 UTC 23 August 2019
Temperature: 25.6°C (78°F)
Dewpoint: 22.8°C (73°F) [RH = 85%]
Pressure (altimeter): 29.97 inches Hg (1015.0 mb)
[Sea-level pressure: 1014.4 mb]
Winds: from the SSW (210 degrees) at 3 MPH (3 knots; 1.5 m/s)
Visibility: 10 or more miles (16+ km)
Ceiling: 9500 feet AGL
Clouds: few clouds at 5000 feet AGL
scattered clouds at 7000 feet AGL
broken clouds at 9500 feet AGL
Weather: no significant weather observed at this time

METAR text: KJAN 232254Z 20004KT 10SM FEW050 SCT120 BKN250 26/22 A2998 RMK AO2 LTG DSNT N AND NW RAB04E20 SLP148 P0000 T02560217
Conditions at: KJAN (JACKSON , MS, US) observed 2254 UTC 23 August 2019
Temperature: 25.6°C (78°F)
Dewpoint: 21.7°C (71°F) [RH = 79%]
Pressure (altimeter): 29.98 inches Hg (1015.3 mb)
[Sea-level pressure: 1014.8 mb]
Winds: from the SSW (200 degrees) at 5 MPH (4 knots; 2.1 m/s)
Visibility: 10 or more miles (16+ km)
Ceiling: 25000 feet AGL
Clouds: few clouds at 5000 feet AGL
scattered clouds at 12000 feet AGL
broken clouds at 25000 feet AGL
Weather: no significant weather observed at this time

METAR text: KJAN 232207Z 18009KT 10SM -RA FEW046 SCT070 BKN090 27/21 A2996 RMK AO2 LTG DSNT NW-NE RAB04 P0000 T02670211
Conditions at: KJAN (JACKSON , MS, US) observed 2207 UTC 23 August 2019
Temperature: 26.7°C (80°F)
Dewpoint: 21.1°C (70°F) [RH = 71%]
Pressure (altimeter): 29.96 inches Hg (1014.6 mb)
Winds: from the S (180 degrees) at 10 MPH (9 knots; 4.6 m/s)
Visibility: 10 or more miles (16+ km)
Ceiling: 9000 feet AGL
Clouds: few clouds at 4600 feet AGL
scattered clouds at 7000 feet AGL
broken clouds at 9000 feet AGL
Weather: -RA  (light rain)

METAR text: KJAN 232154Z 17008KT 10SM VCTS SCT042 SCT070 27/22 A2996 RMK AO2 LTG DSNT NW-E RAB17E38 TSE03B17E32B33E48 SLP140 TS DSPTD P0000 T02720217
Conditions at: KJAN (JACKSON , MS, US) observed 2154 UTC 23 August 2019
Temperature: 27.2°C (81°F)
Dewpoint: 21.7°C (71°F) [RH = 72%]
Pressure (altimeter): 29.96 inches Hg (1014.6 mb)
[Sea-level pressure: 1014.0 mb]
Winds: from the S (170 degrees) at 9 MPH (8 knots; 4.1 m/s)
Visibility: 10 or more miles (16+ km)
Ceiling: at least 12,000 feet AGL
Clouds: scattered clouds at 4200 feet AGL
scattered clouds at 7000 feet AGL
Weather: VCTS  (thunderstorm in vicinity)

METAR text: KJAN 232123Z 14008KT 10SM -TSRA SCT032 BKN120 27/20 A2996 RMK AO2 LTG DSNT ALQDS RAB17 TSE03B17 TS DSPTD P0000 T02720200
Conditions at: KJAN (JACKSON , MS, US) observed 2123 UTC 23 August 2019
Temperature: 27.2°C (81°F)
Dewpoint: 20.0°C (68°F) [RH = 65%]
Pressure (altimeter): 29.96 inches Hg (1014.6 mb)
Winds: from the SE (140 degrees) at 9 MPH (8 knots; 4.1 m/s)
Visibility: 10 or more miles (16+ km)
Ceiling: 12000 feet AGL
Clouds: scattered clouds at 3200 feet AGL
broken clouds at 12000 feet AGL
Weather: -TSRA  (light rain associated with thunderstorm(s))

METAR text: KJAN 232109Z 16007KT 10SM VCTS SCT047 BKN065 27/20 A2996 RMK AO2 LTG DSNT E-SW TSE03 TS DSPTD T02720200
Conditions at: KJAN (JACKSON , MS, US) observed 2109 UTC 23 August 2019
Temperature: 27.2°C (81°F)
Dewpoint: 20.0°C (68°F) [RH = 65%]
Pressure (altimeter): 29.96 inches Hg (1014.6 mb)
Winds: from the SSE (160 degrees) at 8 MPH (7 knots; 3.6 m/s)
Visibility: 10 or more miles (16+ km)
Ceiling: 6500 feet AGL
Clouds: scattered clouds at 4700 feet AGL
broken clouds at 6500 feet AGL
Weather: VCTS  (thunderstorm in vicinity)

METAR text: KJAN 232054Z 15013KT 10SM TS SCT050CB BKN065 27/19 A2995 RMK AO2 WSHFT 2023 LTG DSNT ALQDS TSB23 SLP138 OCNL LTGICCCCG SE TS SE MOV NE T02720194 55009
Conditions at: KJAN (JACKSON , MS, US) observed 2054 UTC 23 August 2019
Temperature: 27.2°C (81°F)
Dewpoint: 19.4°C (67°F) [RH = 62%]
Pressure (altimeter): 29.95 inches Hg (1014.3 mb)
[Sea-level pressure: 1013.8 mb]
Winds: from the SSE (150 degrees) at 15 MPH (13 knots; 6.7 m/s)
Visibility: 10 or more miles (16+ km)
Ceiling: 6500 feet AGL
Clouds: scattered clouds at 5000 feet AGL
broken clouds at 6500 feet AGL
Weather: TS  (thunderstorm)

METAR text: KJAN 232043Z 16015G24KT 10SM TS SCT050CB BKN065 28/20 A2996 RMK AO2 WSHFT 2023 LTG DSNT E-SW TSB23 OCNL LTGICCCCG SE TS SE MOV NE T02780200
Conditions at: KJAN (JACKSON , MS, US) observed 2043 UTC 23 August 2019
Temperature: 27.8°C (82°F)
Dewpoint: 20.0°C (68°F) [RH = 63%]
Pressure (altimeter): 29.96 inches Hg (1014.6 mb)
Winds: from the SSE (160 degrees) at 17 MPH (15 knots; 7.7 m/s)
gusting to 28 MPH (24 knots; 12.3 m/s)
Visibility: 10 or more miles (16+ km)
Ceiling: 6500 feet AGL
Clouds: scattered clouds at 5000 feet AGL
broken clouds at 6500 feet AGL
Weather: TS  (thunderstorm)

METAR text: KJAN 232029Z 16017G25KT 10SM TS SCT050CB BKN065 31/21 A2997 RMK AO2 LTG DSNT E-SW TSB23 OCNL LTGICCCCG SE TS SE MOV NE T03110211
Conditions at: KJAN (JACKSON , MS, US) observed 2029 UTC 23 August 2019
Temperature: 31.1°C (88°F)
Dewpoint: 21.1°C (70°F) [RH = 55%]
Pressure (altimeter): 29.97 inches Hg (1015.0 mb)
Winds: from the SSE (160 degrees) at 20 MPH (17 knots; 8.7 m/s)
gusting to 29 MPH (25 knots; 12.9 m/s)
Visibility: 10 or more miles (16+ km)
Ceiling: 6500 feet AGL
Clouds: scattered clouds at 5000 feet AGL
broken clouds at 6500 feet AGL
Weather: TS  (thunderstorm)

METAR text: KJAN 231954Z 09006KT 10SM SCT055 BKN120 34/21 A2995 RMK AO2 LTG DSNT SE-SW SLP138 T03390206
Conditions at: KJAN (JACKSON , MS, US) observed 1954 UTC 23 August 2019
Temperature: 33.9°C (93°F)
Dewpoint: 20.6°C (69°F) [RH = 46%]
Pressure (altimeter): 29.95 inches Hg (1014.3 mb)
[Sea-level pressure: 1013.8 mb]
Winds: from the E (90 degrees) at 7 MPH (6 knots; 3.1 m/s)
Visibility: 10 or more miles (16+ km)
Ceiling: 12000 feet AGL
Clouds: scattered clouds at 5500 feet AGL
broken clouds at 12000 feet AGL
Weather: no significant weather observed at this time

METAR text: KJAN 231914Z 11005KT 10SM SCT042 SCT055 33/21 A2998 RMK AO2 LTG DSNT S T03280211
Conditions at: KJAN (JACKSON , MS, US) observed 1914 UTC 23 August 2019
Temperature: 32.8°C (91°F)
Dewpoint: 21.1°C (70°F) [RH = 50%]
Pressure (altimeter): 29.98 inches Hg (1015.3 mb)
Winds: from the ESE (110 degrees) at 6 MPH (5 knots; 2.6 m/s)
Visibility: 10 or more miles (16+ km)
Ceiling: at least 12,000 feet AGL
Clouds: scattered clouds at 4200 feet AGL
scattered clouds at 5500 feet AGL
Weather: no significant weather observed at this time

METAR text: KJAN 231854Z VRB04KT 10SM VCTS BKN042 BKN050 33/21 A2998 RMK AO2 SLP145 T03330211
Conditions at: KJAN (JACKSON , MS, US) observed 1854 UTC 23 August 2019
Temperature: 33.3°C (92°F)
Dewpoint: 21.1°C (70°F) [RH = 49%]
Pressure (altimeter): 29.98 inches Hg (1015.3 mb)
[Sea-level pressure: 1014.5 mb]
Winds: variable direction winds at 5 MPH (4 knots; 2.1 m/s)
Visibility: 10 or more miles (16+ km)
Ceiling: 4200 feet AGL
Clouds: broken clouds at 4200 feet AGL
broken clouds at 5000 feet AGL
Weather: VCTS  (thunderstorm in vicinity)

METAR text: KJAN 231754Z 21004KT 10SM BKN043 BKN049 31/21 A2998 RMK AO2 SLP147 T03110211 10328 20239 58019
Conditions at: KJAN (JACKSON , MS, US) observed 1754 UTC 23 August 2019
Temperature: 31.1°C (88°F)
Dewpoint: 21.1°C (70°F) [RH = 55%]
Pressure (altimeter): 29.98 inches Hg (1015.3 mb)
[Sea-level pressure: 1014.7 mb]
Winds: from the SSW (210 degrees) at 5 MPH (4 knots; 2.1 m/s)
Visibility: 10 or more miles (16+ km)
Ceiling: 4300 feet AGL
Clouds: broken clouds at 4300 feet AGL
broken clouds at 4900 feet AGL
Weather: no significant weather observed at this time

METAR text: KJAN 231654Z 26003KT 10SM SCT034 BKN250 33/22 A3001 RMK AO2 SLP156 T03280217
Conditions at: KJAN (JACKSON , MS, US) observed 1654 UTC 23 August 2019
Temperature: 32.8°C (91°F)
Dewpoint: 21.7°C (71°F) [RH = 52%]
Pressure (altimeter): 30.01 inches Hg (1016.3 mb)
[Sea-level pressure: 1015.6 mb]
Winds: from the W (260 degrees) at 3 MPH (3 knots; 1.5 m/s)
Visibility: 10 or more miles (16+ km)
Ceiling: 25000 feet AGL
Clouds: scattered clouds at 3400 feet AGL
broken clouds at 25000 feet AGL
Weather: no significant weather observed at this time

METAR text: KJAN 231554Z 04003KT 10SM SCT026 BKN250 32/22 A3002 RMK AO2 SLP162 T03170222
Conditions at: KJAN (JACKSON , MS, US) observed 1554 UTC 23 August 2019
Temperature: 31.7°C (89°F)
Dewpoint: 22.2°C (72°F) [RH = 57%]
Pressure (altimeter): 30.02 inches Hg (1016.7 mb)
[Sea-level pressure: 1016.2 mb]
Winds: from the NE (40 degrees) at 3 MPH (3 knots; 1.5 m/s)
Visibility: 10 or more miles (16+ km)
Ceiling: 25000 feet AGL
Clouds: scattered clouds at 2600 feet AGL
broken clouds at 25000 feet AGL
Weather: no significant weather observed at this time

METAR text: KJAN 231454Z VRB03KT 10SM SCT025 29/23 A3004 RMK AO2 SLP167 T02940228 51013
Conditions at: KJAN (JACKSON , MS, US) observed 1454 UTC 23 August 2019
Temperature: 29.4°C (85°F)
Dewpoint: 22.8°C (73°F) [RH = 68%]
Pressure (altimeter): 30.04 inches Hg (1017.4 mb)
[Sea-level pressure: 1016.7 mb]
Winds: variable direction winds at 3 MPH (3 knots; 1.5 m/s)
Visibility: 10 or more miles (16+ km)
Ceiling: at least 12,000 feet AGL
Clouds: scattered clouds at 2500 feet AGL
Weather: no significant weather observed at this time

METAR text: KJAN 231354Z 20004KT 10SM SCT250 27/23 A3004 RMK AO2 SLP167 T02720228
Conditions at: KJAN (JACKSON , MS, US) observed 1354 UTC 23 August 2019
Temperature: 27.2°C (81°F)
Dewpoint: 22.8°C (73°F) [RH = 77%]
Pressure (altimeter): 30.04 inches Hg (1017.4 mb)
[Sea-level pressure: 1016.7 mb]
Winds: from the SSW (200 degrees) at 5 MPH (4 knots; 2.1 m/s)
Visibility: 10 or more miles (16+ km)
Ceiling: at least 12,000 feet AGL
Clouds: scattered clouds at 25000 feet AGL
Weather: no significant weather observed at this time

METAR text: KJAN 231254Z 18005KT 10SM SCT250 25/23 A3002 RMK AO2 SLP160 T02500228
Conditions at: KJAN (JACKSON , MS, US) observed 1254 UTC 23 August 2019
Temperature: 25.0°C (77°F)
Dewpoint: 22.8°C (73°F) [RH = 88%]
Pressure (altimeter): 30.02 inches Hg (1016.7 mb)
[Sea-level pressure: 1016.0 mb]
Winds: from the S (180 degrees) at 6 MPH (5 knots; 2.6 m/s)
Visibility: 10 or more miles (16+ km)
Ceiling: at least 12,000 feet AGL
Clouds: scattered clouds at 25000 feet AGL
Weather: no significant weather observed at this time

METAR text: KJAN 231154Z 17007KT 10SM SCT250 24/22 A3000 RMK AO2 SLP154 70007 T02390222 10250 20228 51013
Conditions at: KJAN (JACKSON , MS, US) observed 1154 UTC 23 August 2019
Temperature: 23.9°C (75°F)
Dewpoint: 22.2°C (72°F) [RH = 90%]
Pressure (altimeter): 30.00 inches Hg (1016.0 mb)
[Sea-level pressure: 1015.4 mb]
Winds: from the S (170 degrees) at 8 MPH (7 knots; 3.6 m/s)
Visibility: 10 or more miles (16+ km)
Ceiling: at least 12,000 feet AGL
Clouds: scattered clouds at 25000 feet AGL
Weather: no significant weather observed at this time

METAR text: KJAN 231054Z 13004KT 9SM CLR 23/22 A2999 RMK AO2 SLP152 T02330217
Conditions at: KJAN (JACKSON , MS, US) observed 1054 UTC 23 August 2019
Temperature: 23.3°C (74°F)
Dewpoint: 21.7°C (71°F) [RH = 91%]
Pressure (altimeter): 29.99 inches Hg (1015.7 mb)
[Sea-level pressure: 1015.2 mb]
Winds: from the SE (130 degrees) at 5 MPH (4 knots; 2.1 m/s)
Visibility: 9 miles (14 km)
Ceiling: at least 12,000 feet AGL
Clouds: sky clear below 12,000 feet AGL
Weather: no significant weather observed at this time

METAR text: KJAN 230954Z AUTO 00000KT 8SM CLR 23/22 A2998 RMK AO2 SLP146 T02330217
Conditions at: KJAN (JACKSON , MS, US) observed 0954 UTC 23 August 2019
Temperature: 23.3°C (74°F)
Dewpoint: 21.7°C (71°F) [RH = 91%]
Pressure (altimeter): 29.98 inches Hg (1015.3 mb)
[Sea-level pressure: 1014.6 mb]
Winds: calm
Visibility: 8 miles (13 km)
Ceiling: at least 12,000 feet AGL
Clouds: sky clear below 12,000 feet AGL
Weather: automated observation with no human augmentation;
there may or may not be significant weather present at this time

METAR text: KJAN 230854Z AUTO 15005KT 10SM CLR 23/22 A2996 RMK AO2 SLP141 T02330217 58013
Conditions at: KJAN (JACKSON , MS, US) observed 0854 UTC 23 August 2019
Temperature: 23.3°C (74°F)
Dewpoint: 21.7°C (71°F) [RH = 91%]
Pressure (altimeter): 29.96 inches Hg (1014.6 mb)
[Sea-level pressure: 1014.1 mb]
Winds: from the SSE (150 degrees) at 6 MPH (5 knots; 2.6 m/s)
Visibility: 10 or more miles (16+ km)
Ceiling: at least 12,000 feet AGL
Clouds: sky clear below 12,000 feet AGL
Weather: automated observation with no human augmentation;
there may or may not be significant weather present at this time

METAR text: KJAN 230754Z AUTO 00000KT 10SM CLR 23/22 A2997 RMK AO2 SLP145 T02330217
Conditions at: KJAN (JACKSON , MS, US) observed 0754 UTC 23 August 2019
Temperature: 23.3°C (74°F)
Dewpoint: 21.7°C (71°F) [RH = 91%]
Pressure (altimeter): 29.97 inches Hg (1015.0 mb)
[Sea-level pressure: 1014.5 mb]
Winds: calm
Visibility: 10 or more miles (16+ km)
Ceiling: at least 12,000 feet AGL
Clouds: sky clear below 12,000 feet AGL
Weather: automated observation with no human augmentation;
there may or may not be significant weather present at this time

METAR text: KJAN 230654Z AUTO 00000KT 10SM CLR 24/22 A2999 RMK AO2 SLP151 T02440222
Conditions at: KJAN (JACKSON , MS, US) observed 0654 UTC 23 August 2019
Temperature: 24.4°C (76°F)
Dewpoint: 22.2°C (72°F) [RH = 88%]
Pressure (altimeter): 29.99 inches Hg (1015.7 mb)
[Sea-level pressure: 1015.1 mb]
Winds: calm
Visibility: 10 or more miles (16+ km)
Ceiling: at least 12,000 feet AGL
Clouds: sky clear below 12,000 feet AGL
Weather: automated observation with no human augmentation;
there may or may not be significant weather present at this time

METAR text: KJAN 230554Z AUTO 17004KT 10SM CLR 25/23 A3000 RMK AO2 SLP154 T02500228 10294 20250 403220228 51008
Conditions at: KJAN (JACKSON , MS, US) observed 0554 UTC 23 August 2019
Temperature: 25.0°C (77°F)
Dewpoint: 22.8°C (73°F) [RH = 88%]
Pressure (altimeter): 30.00 inches Hg (1016.0 mb)
[Sea-level pressure: 1015.4 mb]
Winds: from the S (170 degrees) at 5 MPH (4 knots; 2.1 m/s)
Visibility: 10 or more miles (16+ km)
Ceiling: at least 12,000 feet AGL
Clouds: sky clear below 12,000 feet AGL
Weather: automated observation with no human augmentation;
there may or may not be significant weather present at this time

Forecast for: KJAN (JACKSON , MS, US)
Text: KJAN 241630Z 2417/2512 VRB03KT P6SM VCSH SCT025 BKN120
Forecast period: 1700 to 2100 UTC 24 August 2019
Forecast type: FROM: standard forecast or significant change
Winds: variable direction winds at 3 MPH (3 knots; 1.5 m/s)
Visibility: 6 or more miles 10+ km)
Ceiling: 12000 feet AGL
Clouds: scattered clouds at 2500 feet AGL
broken clouds at 12000 feet AGL
Weather: VCSH  (showers in vicinity)
Text: FM242100 17005KT P6SM -SHRA VCTS BKN040CB
Forecast period: 2100 UTC 24 August 2019 to 0000 UTC 25 August 2019
Forecast type: FROM: standard forecast or significant change
Winds: from the S (170 degrees) at 6 MPH (5 knots; 2.6 m/s)
Visibility: 6 or more miles 10+ km)
Ceiling: 4000 feet AGL
Clouds: broken clouds at 4000 feet AGL
Weather: -SHRA VCTS  (light rain showers, thunderstorm in vicinity)
Text: FM250000 15003KT P6SM -SHRA SCT040 BKN150
Forecast period: 0000 to 0400 UTC 25 August 2019
Forecast type: FROM: standard forecast or significant change
Winds: from the SSE (150 degrees) at 3 MPH (3 knots; 1.5 m/s)
Visibility: 6 or more miles 10+ km)
Ceiling: 15000 feet AGL
Clouds: scattered clouds at 4000 feet AGL
broken clouds at 15000 feet AGL
Weather: -SHRA  (light rain showers)
Text: FM250400 00000KT P6SM FEW025 SCT040
Forecast period: 0400 to 1200 UTC 25 August 2019
Forecast type: FROM: standard forecast or significant change
Winds: calm
Visibility: 6 or more miles 10+ km)
Ceiling: at least 12,000 feet AGL
Clouds: few clouds at 2500 feet AGL
scattered clouds at 4000 feet AGL
Weather: no significant weather forecast for this period